createdAt,value
2018-11-10T00:03:47.358Z,11.17
2018-11-10T00:09:07.257Z,11.26
2018-11-10T00:14:25.755Z,11.28
2018-11-10T00:19:44.263Z,11.23
2018-11-10T00:25:02.825Z,11.21
2018-11-10T00:30:21.329Z,11.34
2018-11-10T00:35:39.875Z,11.37
2018-11-10T00:40:58.391Z,11.33
2018-11-10T00:46:16.936Z,11.31
2018-11-10T00:51:35.454Z,11.34
2018-11-10T00:56:53.998Z,11.40
2018-11-10T01:02:12.649Z,11.42
2018-11-10T01:07:31.255Z,11.44
2018-11-10T01:12:49.775Z,11.56
2018-11-10T01:18:08.743Z,11.52
2018-11-10T01:23:27.279Z,11.43
2018-11-10T01:28:45.837Z,11.53
2018-11-10T01:34:04.486Z,11.63
2018-11-10T01:39:22.993Z,11.50
2018-11-10T01:44:41.546Z,11.38
2018-11-10T01:50:00.035Z,11.28
2018-11-10T01:55:18.516Z,11.30
2018-11-10T02:00:37.042Z,11.47
2018-11-10T02:05:55.570Z,11.65
2018-11-10T02:11:14.081Z,11.58
2018-11-10T02:16:32.644Z,11.93
2018-11-10T02:21:51.192Z,11.85
2018-11-10T02:27:15.226Z,12.01
2018-11-10T02:32:33.712Z,12.15
2018-11-10T02:37:52.255Z,12.18
2018-11-10T02:43:11.378Z,12.32
2018-11-10T02:48:29.932Z,12.49
2018-11-10T02:53:48.525Z,12.40
2018-11-10T02:59:07.083Z,12.65
2018-11-10T03:04:25.740Z,12.64
2018-11-10T03:09:44.257Z,12.81
2018-11-10T03:15:03.006Z,12.89
2018-11-10T03:20:22.159Z,12.94
2018-11-10T03:25:40.776Z,13.18
2018-11-10T03:30:59.267Z,13.18
2018-11-10T03:36:17.795Z,13.26
2018-11-10T03:41:36.839Z,13.26
2018-11-10T03:46:55.364Z,13.22
2018-11-10T03:52:13.904Z,13.21
2018-11-10T03:57:32.391Z,13.34
2018-11-10T04:02:50.958Z,13.23
2018-11-10T04:08:09.465Z,13.15
2018-11-10T04:13:27.965Z,13.26
2018-11-10T04:18:47.160Z,13.34
2018-11-10T04:24:06.194Z,13.45
2018-11-10T04:29:24.906Z,13.38
2018-11-10T04:34:43.488Z,13.41
2018-11-10T04:40:02.095Z,13.37
2018-11-10T04:45:20.623Z,13.44
2018-11-10T04:50:39.106Z,13.41
2018-11-10T04:55:57.617Z,13.48
2018-11-10T05:01:16.188Z,13.35
2018-11-10T05:06:34.880Z,13.39
2018-11-10T05:11:53.516Z,13.46
2018-11-10T05:17:12.895Z,13.49
2018-11-10T05:22:31.393Z,13.42
2018-11-10T05:27:49.886Z,13.41
2018-11-10T05:33:08.398Z,13.52
2018-11-10T05:38:27.190Z,13.45
2018-11-10T05:43:45.669Z,13.44
2018-11-10T05:49:04.172Z,13.36
2018-11-10T05:54:22.783Z,13.32
2018-11-10T05:59:41.322Z,13.03
2018-11-10T06:04:59.839Z,12.74
2018-11-10T06:10:18.548Z,12.39
2018-11-10T06:15:36.979Z,12.15
2018-11-10T06:20:55.480Z,12.06
2018-11-10T06:26:14.070Z,11.86
2018-11-10T06:31:32.555Z,11.74
2018-11-10T06:36:51.076Z,11.55
2018-11-10T06:42:09.568Z,11.55
2018-11-10T06:47:28.022Z,11.49
2018-11-10T06:52:46.576Z,11.44
2018-11-10T06:58:05.687Z,11.46
2018-11-10T07:03:24.782Z,11.57
2018-11-10T07:08:43.266Z,11.59
2018-11-10T07:14:01.764Z,11.53
2018-11-10T07:19:20.287Z,11.53
2018-11-10T07:24:39.035Z,11.58
2018-11-10T07:29:57.547Z,11.55
2018-11-10T07:35:16.082Z,11.66
2018-11-10T07:40:34.584Z,11.70
2018-11-10T07:45:53.081Z,11.72
2018-11-10T07:51:11.761Z,11.78
2018-11-10T07:56:30.196Z,11.84
2018-11-10T08:01:49.819Z,11.83
2018-11-10T08:07:08.373Z,11.91
2018-11-10T08:12:26.943Z,11.87
2018-11-10T08:17:45.452Z,11.86
2018-11-10T08:23:03.955Z,11.88
2018-11-10T08:28:22.446Z,11.92
2018-11-10T08:33:41.062Z,11.99
2018-11-10T08:38:59.565Z,12.00
2018-11-10T08:44:18.688Z,12.04
2018-11-10T08:49:37.343Z,12.19
2018-11-10T08:54:55.858Z,12.19
2018-11-10T09:00:14.351Z,12.19
2018-11-10T09:05:33.000Z,12.19
2018-11-10T09:10:51.580Z,12.26
2018-11-10T09:16:10.086Z,12.23
2018-11-10T09:21:29.001Z,12.28
2018-11-10T09:26:47.379Z,12.27
2018-11-10T09:32:06.411Z,12.27
2018-11-10T09:37:24.906Z,12.29
2018-11-10T09:42:44.169Z,12.21
2018-11-10T09:48:02.535Z,12.22
2018-11-10T09:53:21.718Z,12.29
2018-11-10T09:58:40.402Z,12.39
2018-11-10T10:03:59.771Z,12.37
2018-11-10T10:14:34.467Z,12.46
2018-11-10T10:19:52.942Z,12.60
2018-11-10T10:25:13.117Z,12.67
2018-11-10T10:30:31.684Z,12.54
2018-11-10T10:35:50.204Z,12.61
2018-11-10T10:41:08.772Z,12.62
2018-11-10T10:46:27.319Z,12.69
2018-11-10T10:51:46.056Z,12.70
2018-11-10T10:57:05.284Z,12.77
2018-11-10T11:02:29.144Z,12.78
2018-11-10T11:07:47.916Z,12.67
2018-11-10T11:13:06.670Z,12.69
2018-11-10T11:18:25.175Z,12.61
2018-11-10T11:23:43.652Z,12.65
2018-11-10T11:29:02.239Z,12.66
2018-11-10T11:34:20.695Z,12.73
2018-11-10T11:39:39.211Z,12.68
2018-11-10T11:44:57.721Z,12.69
2018-11-10T11:50:16.638Z,12.59
2018-11-10T11:55:36.261Z,12.56
2018-11-10T12:00:54.722Z,12.67
2018-11-10T12:06:13.257Z,12.54
2018-11-10T12:11:31.792Z,12.50
2018-11-10T12:16:50.363Z,12.44
2018-11-10T12:22:08.968Z,12.41
2018-11-10T12:27:27.987Z,12.40
2018-11-10T12:32:47.036Z,12.36
2018-11-10T12:38:05.679Z,12.41
2018-11-10T12:43:24.261Z,12.37
2018-11-10T12:48:42.785Z,12.34
2018-11-10T12:54:01.370Z,12.33
2018-11-10T12:59:19.911Z,12.21
2018-11-10T13:04:38.399Z,12.10
2018-11-10T13:09:56.883Z,12.20
2018-11-10T13:15:15.862Z,12.30
2018-11-10T13:20:34.335Z,12.42
2018-11-10T13:25:52.851Z,12.38
2018-11-10T13:31:11.430Z,12.50
2018-11-10T13:36:29.853Z,12.60
2018-11-10T13:41:48.383Z,12.64
2018-11-10T13:47:08.569Z,12.66
2018-11-10T13:52:27.413Z,12.65
2018-11-10T13:57:45.767Z,12.71
2018-11-10T14:03:04.295Z,12.74
2018-11-10T14:08:22.793Z,12.70
2018-11-10T14:13:41.955Z,12.70
2018-11-10T14:19:00.498Z,12.61
2018-11-10T14:24:19.876Z,12.69
2018-11-10T14:29:38.612Z,12.62
2018-11-10T14:34:57.196Z,12.55
2018-11-10T14:40:17.021Z,12.52
2018-11-10T14:45:35.708Z,12.51
2018-11-10T14:50:54.383Z,12.52
2018-11-10T14:56:13.085Z,12.52
2018-11-10T15:01:31.836Z,12.48
2018-11-10T15:06:50.439Z,12.43
2018-11-10T15:12:09.024Z,12.42
2018-11-10T15:17:27.683Z,12.50
2018-11-10T15:22:46.384Z,12.50
2018-11-10T15:28:05.200Z,12.55
2018-11-10T15:33:23.807Z,12.52
2018-11-10T15:38:42.992Z,12.49
2018-11-10T15:44:01.493Z,12.50
2018-11-10T15:49:20.047Z,12.47
2018-11-10T15:54:39.394Z,12.47
2018-11-10T15:59:57.928Z,12.47
2018-11-10T16:05:16.715Z,12.50
2018-11-10T16:10:36.137Z,12.54
2018-11-10T16:15:54.670Z,12.59
2018-11-10T16:21:13.238Z,12.61
2018-11-10T16:26:31.776Z,12.63
2018-11-10T16:31:50.303Z,12.61
2018-11-10T16:37:09.693Z,12.65
2018-11-10T16:42:29.866Z,12.59
2018-11-10T16:47:48.446Z,12.68
2018-11-10T16:58:17.736Z,12.69
2018-11-10T17:03:36.388Z,12.67
2018-11-10T17:08:55.199Z,12.77
2018-11-10T17:14:13.776Z,12.79
2018-11-10T17:19:32.344Z,12.80
2018-11-10T17:24:50.920Z,12.82
2018-11-10T17:30:12.449Z,12.88
2018-11-10T17:35:30.896Z,12.84
2018-11-10T17:40:49.508Z,12.86
2018-11-10T17:46:08.509Z,12.86
2018-11-10T17:51:27.020Z,12.80
2018-11-10T17:56:45.615Z,12.82
2018-11-10T18:02:04.184Z,12.88
2018-11-10T18:07:23.193Z,12.90
2018-11-10T18:12:43.653Z,12.89
2018-11-10T18:18:03.955Z,12.95
2018-11-10T18:23:22.563Z,12.92
2018-11-10T18:28:41.115Z,12.89
2018-11-10T18:34:00.364Z,12.87
2018-11-10T18:39:19.096Z,12.75
2018-11-10T18:44:37.645Z,12.73
2018-11-10T18:49:56.212Z,12.66
2018-11-10T18:55:15.616Z,12.64
2018-11-10T19:00:34.215Z,12.54
2018-11-10T19:05:52.733Z,12.53
2018-11-10T19:11:11.278Z,12.53
2018-11-10T19:16:29.791Z,12.48
2018-11-10T19:21:48.332Z,12.42
2018-11-10T19:27:07.792Z,12.36
2018-11-10T19:32:26.532Z,12.28
2018-11-10T19:37:45.457Z,12.22
2018-11-10T19:43:04.048Z,12.24
2018-11-10T19:48:22.572Z,12.20
2018-11-10T19:53:42.095Z,12.18
2018-11-10T19:59:01.526Z,12.20
2018-11-10T20:04:20.101Z,12.19
2018-11-10T20:09:38.794Z,12.22
2018-11-10T20:14:57.413Z,12.17
2018-11-10T20:20:17.492Z,12.11
2018-11-10T20:25:36.028Z,12.06
2018-11-10T20:30:54.638Z,12.11
2018-11-10T20:36:13.183Z,12.08
2018-11-10T20:41:31.747Z,12.10
2018-11-10T20:46:50.376Z,12.04
2018-11-10T20:52:08.998Z,12.12
2018-11-10T20:57:27.744Z,12.05
2018-11-10T21:02:46.614Z,12.02
2018-11-10T21:08:05.319Z,11.99
2018-11-10T21:13:23.952Z,11.99
2018-11-10T21:18:42.904Z,11.92
2018-11-10T21:24:02.455Z,11.88
2018-11-10T21:29:21.129Z,11.81
2018-11-10T21:34:39.735Z,11.77
2018-11-10T21:39:58.267Z,11.78
2018-11-10T21:45:17.491Z,11.79
2018-11-10T21:50:36.061Z,11.75
2018-11-10T21:55:54.660Z,11.83
2018-11-10T22:01:13.240Z,11.88
2018-11-10T22:06:31.752Z,11.84
2018-11-10T22:11:50.331Z,11.85
2018-11-10T22:17:08.850Z,11.88
2018-11-10T22:22:27.369Z,11.90
2018-11-10T22:27:47.331Z,11.95
2018-11-10T22:33:05.950Z,11.95
2018-11-10T22:38:24.510Z,11.84
2018-11-10T22:43:44.284Z,11.81
2018-11-10T22:49:02.782Z,11.66
2018-11-10T22:54:21.303Z,11.63
2018-11-10T22:59:40.023Z,11.67
2018-11-10T23:04:58.619Z,11.63
2018-11-10T23:10:17.784Z,11.66
2018-11-10T23:15:36.271Z,11.62
2018-11-10T23:20:54.818Z,11.57
2018-11-10T23:26:14.364Z,11.53
2018-11-10T23:31:32.878Z,11.52
2018-11-10T23:36:52.264Z,11.55
2018-11-10T23:42:11.866Z,11.53
2018-11-10T23:47:30.452Z,11.50
2018-11-10T23:52:49.683Z,11.55
2018-11-10T23:58:08.215Z,11.53
